sensor_id;sensor_type;location;lat;lon;timestamp;pressure;altitude;pressure_sealevel;temperature;humidity
70248;BME280;57641;51.416;5.506;2022-08-01T00:00:27;101719.31;;;25.22;59.71
70248;BME280;57641;51.416;5.506;2022-08-01T00:02:52;101710.06;;;25.23;59.96
70248;BME280;57641;51.416;5.506;2022-08-01T00:05:18;101715.09;;;25.27;59.75
70248;BME280;57641;51.416;5.506;2022-08-01T00:07:44;101721.13;;;25.29;59.74
70248;BME280;57641;51.416;5.506;2022-08-01T00:10:12;101716.97;;;25.26;59.74
70248;BME280;57641;51.416;5.506;2022-08-01T00:12:40;101713.41;;;25.26;59.69
70248;BME280;57641;51.416;5.506;2022-08-01T00:15:08;101711.53;;;25.26;59.51
70248;BME280;57641;51.416;5.506;2022-08-01T00:17:34;101710.47;;;25.27;59.70
70248;BME280;57641;51.416;5.506;2022-08-01T00:20:00;101706.06;;;25.26;59.49
70248;BME280;57641;51.416;5.506;2022-08-01T00:22:27;101710.53;;;25.20;59.70
70248;BME280;57641;51.416;5.506;2022-08-01T00:24:53;101718.72;;;25.20;59.95
70248;BME280;57641;51.416;5.506;2022-08-01T00:27:18;101714.09;;;25.21;59.85
70248;BME280;57641;51.416;5.506;2022-08-01T00:29:43;101718.50;;;25.22;60.15
70248;BME280;57641;51.416;5.506;2022-08-01T00:32:09;101725.16;;;25.26;59.88
70248;BME280;57641;51.416;5.506;2022-08-01T00:34:35;101724.41;;;25.19;59.70
70248;BME280;57641;51.416;5.506;2022-08-01T00:37:00;101727.81;;;25.14;59.88
70248;BME280;57641;51.416;5.506;2022-08-01T00:39:25;101725.31;;;25.13;60.07
70248;BME280;57641;51.416;5.506;2022-08-01T00:41:51;101722.72;;;25.18;59.80
70248;BME280;57641;51.416;5.506;2022-08-01T00:44:16;101718.09;;;25.18;59.98
70248;BME280;57641;51.416;5.506;2022-08-01T00:46:42;101729.88;;;25.19;59.83
70248;BME280;57641;51.416;5.506;2022-08-01T00:49:07;101727.31;;;25.06;60.20
70248;BME280;57641;51.416;5.506;2022-08-01T00:51:33;101725.31;;;25.13;60.22
70248;BME280;57641;51.416;5.506;2022-08-01T00:53:59;101726.16;;;25.13;60.12
70248;BME280;57641;51.416;5.506;2022-08-01T00:56:26;101719.63;;;25.14;59.99
70248;BME280;57641;51.416;5.506;2022-08-01T00:58:54;101721.31;;;25.15;60.04
70248;BME280;57641;51.416;5.506;2022-08-01T01:01:20;101724.09;;;25.09;60.52
70248;BME280;57641;51.416;5.506;2022-08-01T01:03:50;101727.81;;;25.14;60.32
70248;BME280;57641;51.416;5.506;2022-08-01T01:06:23;101724.72;;;25.11;60.24
70248;BME280;57641;51.416;5.506;2022-08-01T01:09:02;101722.59;;;25.13;60.41
70248;BME280;57641;51.416;5.506;2022-08-01T01:11:56;101731.53;;;25.02;60.43
70248;BME280;57641;51.416;5.506;2022-08-01T01:14:33;101733.81;;;25.05;60.51
70248;BME280;57641;51.416;5.506;2022-08-01T01:17:00;101732.97;;;25.04;60.51
70248;BME280;57641;51.416;5.506;2022-08-01T01:19:30;101729.09;;;25.12;60.23
70248;BME280;57641;51.416;5.506;2022-08-01T01:22:17;101738.53;;;25.16;60.00
70248;BME280;57641;51.416;5.506;2022-08-01T01:28:08;101737.97;;;25.07;60.78
70248;BME280;57641;51.416;5.506;2022-08-01T01:30:36;101730.09;;;24.99;61.18
70248;BME280;57641;51.416;5.506;2022-08-01T01:33:06;101726.47;;;25.05;61.32
70248;BME280;57641;51.416;5.506;2022-08-01T01:35:48;101724.94;;;25.09;60.90
70248;BME280;57641;51.416;5.506;2022-08-01T01:38:27;101720.53;;;25.08;60.93
70248;BME280;57641;51.416;5.506;2022-08-01T01:40:53;101726.84;;;25.09;61.14
70248;BME280;57641;51.416;5.506;2022-08-01T01:43:21;101735.66;;;25.11;60.97
70248;BME280;57641;51.416;5.506;2022-08-01T01:45:49;101727.69;;;25.09;60.88
70248;BME280;57641;51.416;5.506;2022-08-01T01:48:17;101732.28;;;25.09;60.81
70248;BME280;57641;51.416;5.506;2022-08-01T01:50:45;101736.69;;;25.10;60.90
70248;BME280;57641;51.416;5.506;2022-08-01T01:53:12;101735.03;;;25.09;61.16
70248;BME280;57641;51.416;5.506;2022-08-01T01:55:39;101728.88;;;25.13;61.17
70248;BME280;57641;51.416;5.506;2022-08-01T01:58:07;101728.28;;;25.11;60.94
70248;BME280;57641;51.416;5.506;2022-08-01T02:00:34;101723.88;;;25.10;60.97
70248;BME280;57641;51.416;5.506;2022-08-01T02:03:05;101722.38;;;25.14;61.09
70248;BME280;57641;51.416;5.506;2022-08-01T02:05:33;101721.75;;;25.12;60.58
70248;BME280;57641;51.416;5.506;2022-08-01T02:08:02;101724.03;;;25.15;60.79
70248;BME280;57641;51.416;5.506;2022-08-01T02:10:29;101720.84;;;25.18;61.30
70248;BME280;57641;51.416;5.506;2022-08-01T02:12:57;101721.69;;;25.19;61.29
70248;BME280;57641;51.416;5.506;2022-08-01T02:15:25;101730.47;;;25.21;60.85
70248;BME280;57641;51.416;5.506;2022-08-01T02:17:53;101718.25;;;25.23;60.36
70248;BME280;57641;51.416;5.506;2022-08-01T02:20:20;101715.16;;;25.20;60.67
70248;BME280;57641;51.416;5.506;2022-08-01T02:22:52;101728.59;;;25.21;60.95
70248;BME280;57641;51.416;5.506;2022-08-01T02:25:25;101727.50;;;25.22;60.77
70248;BME280;57641;51.416;5.506;2022-08-01T02:28:09;101715.78;;;25.22;60.87
70248;BME280;57641;51.416;5.506;2022-08-01T02:30:39;101724.63;;;25.17;61.01
70248;BME280;57641;51.416;5.506;2022-08-01T02:33:18;101719.56;;;25.21;61.06
70248;BME280;57641;51.416;5.506;2022-08-01T02:35:52;101714.94;;;25.21;60.92
70248;BME280;57641;51.416;5.506;2022-08-01T02:38:22;101719.31;;;25.22;61.09
70248;BME280;57641;51.416;5.506;2022-08-01T02:40:50;101714.47;;;25.24;60.93
70248;BME280;57641;51.416;5.506;2022-08-01T02:43:20;101718.25;;;25.23;60.72
70248;BME280;57641;51.416;5.506;2022-08-01T02:45:51;101727.06;;;25.26;60.78
70248;BME280;57641;51.416;5.506;2022-08-01T02:48:18;101713.41;;;25.26;60.63
70248;BME280;57641;51.416;5.506;2022-08-01T02:50:47;101717.19;;;25.24;60.57
70248;BME280;57641;51.416;5.506;2022-08-01T02:53:14;101717.19;;;25.24;60.88
70248;BME280;57641;51.416;5.506;2022-08-01T02:55:43;101714.69;;;25.23;60.62
70248;BME280;57641;51.416;5.506;2022-08-01T02:58:14;101713.28;;;25.20;60.67
70248;BME280;57641;51.416;5.506;2022-08-01T03:00:44;101714.53;;;25.18;60.45
70248;BME280;57641;51.416;5.506;2022-08-01T03:03:12;101723.78;;;25.17;60.27
70248;BME280;57641;51.416;5.506;2022-08-01T03:05:39;101714.41;;;25.13;60.69
70248;BME280;57641;51.416;5.506;2022-08-01T03:08:06;101719.41;;;25.16;60.67
70248;BME280;57641;51.416;5.506;2022-08-01T03:10:36;101719.16;;;25.17;60.53
70248;BME280;57641;51.416;5.506;2022-08-01T03:13:03;101730.09;;;25.17;60.54
70248;BME280;57641;51.416;5.506;2022-08-01T03:15:32;101729.88;;;25.19;60.67
70248;BME280;57641;51.416;5.506;2022-08-01T03:17:59;101729.88;;;25.19;60.69
70248;BME280;57641;51.416;5.506;2022-08-01T03:20:27;101729.25;;;25.17;60.45
70248;BME280;57641;51.416;5.506;2022-08-01T03:22:53;101730.91;;;25.18;60.08
70248;BME280;57641;51.416;5.506;2022-08-01T03:25:21;101734.97;;;25.15;60.56
70248;BME280;57641;51.416;5.506;2022-08-01T03:27:55;101724.63;;;25.17;60.46
70248;BME280;57641;51.416;5.506;2022-08-01T03:30:27;101731.16;;;25.16;60.49
70248;BME280;57641;51.416;5.506;2022-08-01T03:32:52;101739.44;;;25.10;60.42
70248;BME280;57641;51.416;5.506;2022-08-01T03:35:19;101737.53;;;25.10;60.69
70248;BME280;57641;51.416;5.506;2022-08-01T03:37:48;101737.53;;;25.10;60.61
70248;BME280;57641;51.416;5.506;2022-08-01T03:40:25;101738.13;;;25.12;60.46
70248;BME280;57641;51.416;5.506;2022-08-01T03:43:00;101738.38;;;25.11;60.42
70248;BME280;57641;51.416;5.506;2022-08-01T03:45:34;101732.06;;;25.10;60.51
70248;BME280;57641;51.416;5.506;2022-08-01T03:48:02;101741.09;;;25.11;60.25
70248;BME280;57641;51.416;5.506;2022-08-01T03:50:30;101738.13;;;25.12;60.35
70248;BME280;57641;51.416;5.506;2022-08-01T03:53:00;101735.03;;;25.09;59.59
70248;BME280;57641;51.416;5.506;2022-08-01T03:55:26;101737.38;;;25.05;59.37
70248;BME280;57641;51.416;5.506;2022-08-01T03:57:52;101731.94;;;25.05;59.77
70248;BME280;57641;51.416;5.506;2022-08-01T04:00:19;101738.59;;;25.09;59.97
70248;BME280;57641;51.416;5.506;2022-08-01T04:02:46;101731.25;;;25.10;59.31
70248;BME280;57641;51.416;5.506;2022-08-01T04:05:13;101728.38;;;25.05;59.16
70248;BME280;57641;51.416;5.506;2022-08-01T04:07:39;101738.44;;;25.04;59.08
70248;BME280;57641;51.416;5.506;2022-08-01T04:10:05;101737.38;;;25.05;59.19
70248;BME280;57641;51.416;5.506;2022-08-01T04:12:32;101735.72;;;25.04;59.14
70248;BME280;57641;51.416;5.506;2022-08-01T04:14:59;101733.56;;;25.06;59.19
70248;BME280;57641;51.416;5.506;2022-08-01T04:17:24;101742.00;;;25.05;59.49
70248;BME280;57641;51.416;5.506;2022-08-01T04:19:50;101747.47;;;25.05;59.28
70248;BME280;57641;51.416;5.506;2022-08-01T04:22:16;101747.69;;;25.03;59.25
70248;BME280;57641;51.416;5.506;2022-08-01T04:24:44;101747.94;;;24.77;59.14
70248;BME280;57641;51.416;5.506;2022-08-01T04:27:18;101754.75;;;24.86;59.64
70248;BME280;57641;51.416;5.506;2022-08-01T04:29:46;101745.34;;;24.89;59.68
70248;BME280;57641;51.416;5.506;2022-08-01T04:32:15;101752.03;;;24.86;59.54
70248;BME280;57641;51.416;5.506;2022-08-01T04:34:41;101750.78;;;24.89;59.08
70248;BME280;57641;51.416;5.506;2022-08-01T04:37:11;101749.13;;;24.88;59.12
70248;BME280;57641;51.416;5.506;2022-08-01T04:39:39;101751.16;;;24.92;59.77
70248;BME280;57641;51.416;5.506;2022-08-01T04:42:07;101753.28;;;24.90;59.83
70248;BME280;57641;51.416;5.506;2022-08-01T04:44:33;101756.25;;;24.89;59.96
70248;BME280;57641;51.416;5.506;2022-08-01T04:47:00;101762.06;;;24.92;59.51
70248;BME280;57641;51.416;5.506;2022-08-01T04:49:31;101776.31;;;24.69;59.55
70248;BME280;57641;51.416;5.506;2022-08-01T04:51:57;101775.66;;;24.74;59.49
70248;BME280;57641;51.416;5.506;2022-08-01T04:54:26;101777.25;;;24.81;59.60
70248;BME280;57641;51.416;5.506;2022-08-01T04:56:53;101783.56;;;24.82;59.83
70248;BME280;57641;51.416;5.506;2022-08-01T04:59:24;101791.31;;;24.85;59.59
70248;BME280;57641;51.416;5.506;2022-08-01T05:02:13;101787.13;;;24.82;59.98
70248;BME280;57641;51.416;5.506;2022-08-01T05:04:40;101782.94;;;24.80;59.47
70248;BME280;57641;51.416;5.506;2022-08-01T05:07:07;101780.44;;;24.78;59.80
70248;BME280;57641;51.416;5.506;2022-08-01T05:09:33;101782.13;;;24.79;59.33
70248;BME280;57641;51.416;5.506;2022-08-01T05:11:59;101791.72;;;24.82;59.59
70248;BME280;57641;51.416;5.506;2022-08-01T05:14:27;101788.78;;;24.83;59.38
70248;BME280;57641;51.416;5.506;2022-08-01T05:16:53;101793.19;;;24.85;58.90
70248;BME280;57641;51.416;5.506;2022-08-01T05:19:20;101799.50;;;24.85;58.82
70248;BME280;57641;51.416;5.506;2022-08-01T05:21:45;101795.75;;;24.79;58.89
70248;BME280;57641;51.416;5.506;2022-08-01T05:24:11;101800.38;;;24.79;59.04
70248;BME280;57641;51.416;5.506;2022-08-01T05:26:38;101798.50;;;24.79;58.81
70248;BME280;57641;51.416;5.506;2022-08-01T05:29:04;101801.59;;;24.83;59.25
70248;BME280;57641;51.416;5.506;2022-08-01T05:31:30;101807.47;;;24.80;59.10
70248;BME280;57641;51.416;5.506;2022-08-01T05:33:57;101805.00;;;24.78;58.44
70248;BME280;57641;51.416;5.506;2022-08-01T05:36:23;101805.59;;;24.80;58.61
70248;BME280;57641;51.416;5.506;2022-08-01T05:38:48;101797.41;;;24.80;58.78
70248;BME280;57641;51.416;5.506;2022-08-01T05:41:14;101805.38;;;24.82;58.22
70248;BME280;57641;51.416;5.506;2022-08-01T05:43:42;101805.38;;;24.82;58.58
70248;BME280;57641;51.416;5.506;2022-08-01T05:46:07;101808.94;;;24.82;58.65
70248;BME280;57641;51.416;5.506;2022-08-01T05:48:33;101803.03;;;24.86;58.77
70248;BME280;57641;51.416;5.506;2022-08-01T05:50:58;101802.16;;;24.92;58.89
70248;BME280;57641;51.416;5.506;2022-08-01T05:53:24;101796.28;;;24.95;58.13
70248;BME280;57641;51.416;5.506;2022-08-01T05:55:49;101799.59;;;24.97;58.54
70248;BME280;57641;51.416;5.506;2022-08-01T05:58:15;101793.00;;;25.04;58.60
70248;BME280;57641;51.416;5.506;2022-08-01T06:00:40;101791.97;;;25.05;58.16
70248;BME280;57641;51.416;5.506;2022-08-01T06:03:06;101792.81;;;25.06;58.09
70248;BME280;57641;51.416;5.506;2022-08-01T06:05:32;101794.00;;;25.10;57.82
70248;BME280;57641;51.416;5.506;2022-08-01T06:07:57;101791.28;;;25.10;57.65
70248;BME280;57641;51.416;5.506;2022-08-01T06:10:23;101791.28;;;25.10;57.90
70248;BME280;57641;51.416;5.506;2022-08-01T06:12:49;101795.69;;;25.11;57.64
70248;BME280;57641;51.416;5.506;2022-08-01T06:15:17;101796.44;;;25.18;57.76
70248;BME280;57641;51.416;5.506;2022-08-01T06:17:42;101793.69;;;25.18;57.33
70248;BME280;57641;51.416;5.506;2022-08-01T06:20:08;101801.03;;;25.17;57.29
70248;BME280;57641;51.416;5.506;2022-08-01T06:22:34;101788.72;;;25.15;57.65
70248;BME280;57641;51.416;5.506;2022-08-01T06:24:59;101789.28;;;25.17;57.77
70248;BME280;57641;51.416;5.506;2022-08-01T06:27:24;101787.72;;;25.09;58.20
70248;BME280;57641;51.416;5.506;2022-08-01T06:29:51;101787.25;;;25.12;57.85
70248;BME280;57641;51.416;5.506;2022-08-01T06:32:19;101782.25;;;25.09;57.49
70248;BME280;57641;51.416;5.506;2022-08-01T06:34:44;101795.16;;;25.20;57.84
70248;BME280;57641;51.416;5.506;2022-08-01T06:37:10;101799.09;;;25.24;57.32
70248;BME280;57641;51.416;5.506;2022-08-01T06:39:38;101798.19;;;25.31;56.43
70248;BME280;57641;51.416;5.506;2022-08-01T06:42:03;101798.03;;;25.26;55.87
70248;BME280;57641;51.416;5.506;2022-08-01T06:44:29;101805.59;;;25.23;55.98
70248;BME280;57641;51.416;5.506;2022-08-01T06:46:55;101808.13;;;25.25;56.09
70248;BME280;57641;51.416;5.506;2022-08-01T06:49:20;101819.19;;;25.30;55.68
70248;BME280;57641;51.416;5.506;2022-08-01T06:51:45;101815.47;;;25.24;55.26
70248;BME280;57641;51.416;5.506;2022-08-01T06:54:11;101816.00;;;25.15;55.55
70248;BME280;57641;51.416;5.506;2022-08-01T06:56:36;101826.06;;;25.14;55.96
70248;BME280;57641;51.416;5.506;2022-08-01T06:59:02;101826.00;;;25.21;56.30
70248;BME280;57641;51.416;5.506;2022-08-01T07:01:28;101820.31;;;25.22;55.70
70248;BME280;57641;51.416;5.506;2022-08-01T07:03:53;101822.44;;;25.20;55.15
70248;BME280;57641;51.416;5.506;2022-08-01T07:06:20;101828.75;;;25.21;55.61
70248;BME280;57641;51.416;5.506;2022-08-01T07:08:46;101832.22;;;25.28;55.77
70248;BME280;57641;51.416;5.506;2022-08-01T07:11:11;101826.69;;;25.35;55.32
70248;BME280;57641;51.416;5.506;2022-08-01T07:13:36;101829.13;;;25.43;55.52
70248;BME280;57641;51.416;5.506;2022-08-01T07:16:02;101818.50;;;25.35;54.83
70248;BME280;57641;51.416;5.506;2022-08-01T07:18:27;101833.13;;;25.40;54.80
70248;BME280;57641;51.416;5.506;2022-08-01T07:20:53;101828.44;;;25.47;54.56
70248;BME280;57641;51.416;5.506;2022-08-01T07:23:18;101824.56;;;25.55;54.53
70248;BME280;57641;51.416;5.506;2022-08-01T07:25:44;101823.25;;;25.64;55.11
70248;BME280;57641;51.416;5.506;2022-08-01T07:28:09;101823.75;;;25.73;54.62
70248;BME280;57641;51.416;5.506;2022-08-01T07:30:35;101828.31;;;25.79;54.03
70248;BME280;57641;51.416;5.506;2022-08-01T07:33:00;101826.06;;;25.87;53.87
70248;BME280;57641;51.416;5.506;2022-08-01T07:35:26;101823.56;;;25.86;53.33
70248;BME280;57641;51.416;5.506;2022-08-01T07:37:52;101831.94;;;25.91;53.65
70248;BME280;57641;51.416;5.506;2022-08-01T07:40:18;101830.00;;;25.91;52.92
70248;BME280;57641;51.416;5.506;2022-08-01T07:42:44;101830.97;;;25.85;52.99
70248;BME280;57641;51.416;5.506;2022-08-01T07:45:10;101836.41;;;25.85;52.75
70248;BME280;57641;51.416;5.506;2022-08-01T07:47:36;101844.47;;;25.80;53.36
70248;BME280;57641;51.416;5.506;2022-08-01T07:50:04;101858.91;;;25.69;53.58
70248;BME280;57641;51.416;5.506;2022-08-01T07:52:30;101847.72;;;25.71;53.50
70248;BME280;57641;51.416;5.506;2022-08-01T07:54:56;101844.28;;;25.75;53.89
70248;BME280;57641;51.416;5.506;2022-08-01T07:57:23;101846.72;;;25.65;53.18
70248;BME280;57641;51.416;5.506;2022-08-01T07:59:49;101848.25;;;25.61;53.14
70248;BME280;57641;51.416;5.506;2022-08-01T08:02:15;101847.22;;;25.62;53.12
70248;BME280;57641;51.416;5.506;2022-08-01T08:04:40;101844.28;;;25.75;52.64
70248;BME280;57641;51.416;5.506;2022-08-01T08:07:06;101849.47;;;25.83;52.80
70248;BME280;57641;51.416;5.506;2022-08-01T08:09:31;101848.69;;;25.94;52.70
70248;BME280;57641;51.416;5.506;2022-08-01T08:11:57;101846.84;;;26.06;51.93
70248;BME280;57641;51.416;5.506;2022-08-01T08:14:22;101851.97;;;26.15;51.75
70248;BME280;57641;51.416;5.506;2022-08-01T08:16:49;101855.06;;;26.18;50.59
70248;BME280;57641;51.416;5.506;2022-08-01T08:19:15;101855.31;;;26.17;50.74
70248;BME280;57641;51.416;5.506;2022-08-01T08:21:41;101863.50;;;26.35;51.59
70248;BME280;57641;51.416;5.506;2022-08-01T08:24:08;101857.84;;;26.48;50.64
70248;BME280;57641;51.416;5.506;2022-08-01T08:26:47;101851.75;;;26.46;49.77
70248;BME280;57641;51.416;5.506;2022-08-01T08:29:13;101847.47;;;26.50;50.64
70248;BME280;57641;51.416;5.506;2022-08-01T08:31:39;101852.25;;;26.55;50.67
70248;BME280;57641;51.416;5.506;2022-08-01T08:34:05;101853.91;;;26.56;50.39
70248;BME280;57641;51.416;5.506;2022-08-01T08:36:30;101852.84;;;26.57;49.55
70248;BME280;57641;51.416;5.506;2022-08-01T08:38:57;101847.03;;;26.53;49.65
70248;BME280;57641;51.416;5.506;2022-08-01T08:41:22;101846.06;;;26.47;49.91
70248;BME280;57641;51.416;5.506;2022-08-01T08:43:48;101849.88;;;26.58;50.76
70248;BME280;57641;51.416;5.506;2022-08-01T08:46:14;101854.41;;;26.64;49.19
70248;BME280;57641;51.416;5.506;2022-08-01T08:48:40;101852.25;;;26.66;47.92
70248;BME280;57641;51.416;5.506;2022-08-01T08:51:08;101851.06;;;26.62;48.50
70248;BME280;57641;51.416;5.506;2022-08-01T08:53:38;101849.41;;;26.61;48.34
70248;BME280;57641;51.416;5.506;2022-08-01T08:56:08;101849.50;;;26.55;48.60
70248;BME280;57641;51.416;5.506;2022-08-01T08:58:35;101851.03;;;26.51;48.66
70248;BME280;57641;51.416;5.506;2022-08-01T09:01:05;101854.88;;;26.61;48.65
70248;BME280;57641;51.416;5.506;2022-08-01T09:03:32;101856.44;;;26.69;49.37
70248;BME280;57641;51.416;5.506;2022-08-01T09:05:58;101857.59;;;26.61;47.89
70248;BME280;57641;51.416;5.506;2022-08-01T09:08:23;101858.34;;;26.68;47.92
70248;BME280;57641;51.416;5.506;2022-08-01T09:10:49;101854.31;;;26.82;48.51
70248;BME280;57641;51.416;5.506;2022-08-01T09:13:14;101853.03;;;26.97;48.23
70248;BME280;57641;51.416;5.506;2022-08-01T09:15:52;101864.13;;;27.13;46.95
70248;BME280;57641;51.416;5.506;2022-08-01T09:18:34;101866.72;;;27.20;47.35
70248;BME280;57641;51.416;5.506;2022-08-01T09:23:40;101864.81;;;27.09;47.31
70248;BME280;57641;51.416;5.506;2022-08-01T09:26:13;101860.91;;;27.05;47.62
70248;BME280;57641;51.416;5.506;2022-08-01T09:28:39;101872.31;;;27.13;48.27
70248;BME280;57641;51.416;5.506;2022-08-01T09:31:13;101868.88;;;27.29;47.25
70248;BME280;57641;51.416;5.506;2022-08-01T09:33:53;101878.16;;;27.40;45.82
70248;BME280;57641;51.416;5.506;2022-08-01T09:36:20;101869.81;;;27.47;46.18
70248;BME280;57641;51.416;5.506;2022-08-01T09:38:46;101868.50;;;27.61;46.59
70248;BME280;57641;51.416;5.506;2022-08-01T09:41:11;101868.44;;;27.84;46.66
70248;BME280;57641;51.416;5.506;2022-08-01T09:43:37;101873.81;;;27.91;45.95
70248;BME280;57641;51.416;5.506;2022-08-01T09:46:10;101868.44;;;27.84;45.21
70248;BME280;57641;51.416;5.506;2022-08-01T09:48:42;101867.00;;;27.82;45.59
70248;BME280;57641;51.416;5.506;2022-08-01T09:51:28;101861.50;;;27.93;44.13
70248;BME280;57641;51.416;5.506;2022-08-01T09:53:54;101856.81;;;28.05;44.63
70248;BME280;57641;51.416;5.506;2022-08-01T09:56:21;101874.19;;;28.23;44.46
70248;BME280;57641;51.416;5.506;2022-08-01T09:58:57;101861.41;;;28.28;42.40
70248;BME280;57641;51.416;5.506;2022-08-01T10:01:23;101866.34;;;28.03;42.02
70248;BME280;57641;51.416;5.506;2022-08-01T10:04:06;101869.81;;;27.98;42.68
70248;BME280;57641;51.416;5.506;2022-08-01T10:06:32;101868.00;;;28.04;44.51
70248;BME280;57641;51.416;5.506;2022-08-01T10:08:57;101866.59;;;28.01;43.36
70248;BME280;57641;51.416;5.506;2022-08-01T10:11:23;101869.16;;;27.91;42.55
70248;BME280;57641;51.416;5.506;2022-08-01T10:13:49;101867.19;;;28.03;43.58
70248;BME280;57641;51.416;5.506;2022-08-01T10:16:15;101864.31;;;28.38;44.69
70248;BME280;57641;51.416;5.506;2022-08-01T10:18:41;101862.25;;;28.45;43.45
70248;BME280;57641;51.416;5.506;2022-08-01T10:21:08;101870.47;;;28.45;43.38
70248;BME280;57641;51.416;5.506;2022-08-01T10:23:35;101869.03;;;28.26;42.92
70248;BME280;57641;51.416;5.506;2022-08-01T10:26:01;101863.81;;;28.41;42.68
70248;BME280;57641;51.416;5.506;2022-08-01T10:28:30;101867.63;;;28.40;42.28
70248;BME280;57641;51.416;5.506;2022-08-01T10:30:57;101866.56;;;28.41;43.07
70248;BME280;57641;51.416;5.506;2022-08-01T10:33:24;101873.13;;;28.40;42.14
70248;BME280;57641;51.416;5.506;2022-08-01T10:35:51;101866.25;;;28.54;40.67
70248;BME280;57641;51.416;5.506;2022-08-01T10:38:17;101862.19;;;28.57;39.77
70248;BME280;57641;51.416;5.506;2022-08-01T10:40:43;101861.50;;;28.67;40.77
70248;BME280;57641;51.416;5.506;2022-08-01T10:43:16;101861.00;;;28.36;40.63
70248;BME280;57641;51.416;5.506;2022-08-01T10:45:45;101861.88;;;28.25;41.96
70248;BME280;57641;51.416;5.506;2022-08-01T10:48:31;101855.97;;;28.17;41.79
70248;BME280;57641;51.416;5.506;2022-08-01T10:51:02;101856.06;;;28.10;41.82
70248;BME280;57641;51.416;5.506;2022-08-01T10:53:29;101856.53;;;28.19;43.02
70248;BME280;57641;51.416;5.506;2022-08-01T10:58:30;101852.16;;;28.34;41.24
70248;BME280;57641;51.416;5.506;2022-08-01T11:03:45;101851.13;;;28.24;42.58
70248;BME280;57641;51.416;5.506;2022-08-01T11:08:54;101856.25;;;28.32;41.67
70248;BME280;57641;51.416;5.506;2022-08-01T11:11:20;101870.25;;;28.64;42.37
70248;BME280;57641;51.416;5.506;2022-08-01T11:14:06;101872.19;;;28.35;43.60
70248;BME280;57641;51.416;5.506;2022-08-01T11:16:36;101868.44;;;28.24;44.10
70248;BME280;57641;51.416;5.506;2022-08-01T11:19:03;101873.91;;;28.24;44.27
70248;BME280;57641;51.416;5.506;2022-08-01T11:24:13;101879.81;;;28.04;45.00
70248;BME280;57641;51.416;5.506;2022-08-01T11:26:39;101876.47;;;28.14;45.20
70248;BME280;57641;51.416;5.506;2022-08-01T11:29:13;101876.75;;;28.12;44.24
70248;BME280;57641;51.416;5.506;2022-08-01T11:31:39;101882.41;;;28.23;44.41
70248;BME280;57641;51.416;5.506;2022-08-01T11:34:05;101886.22;;;28.10;45.43
70248;BME280;57641;51.416;5.506;2022-08-01T11:36:30;101891.56;;;27.77;45.64
70248;BME280;57641;51.416;5.506;2022-08-01T11:41:29;101905.78;;;27.62;45.91
70248;BME280;57641;51.416;5.506;2022-08-01T11:43:56;101910.28;;;27.80;46.09
70248;BME280;57641;51.416;5.506;2022-08-01T11:49:24;101895.63;;;27.86;44.73
70248;BME280;57641;51.416;5.506;2022-08-01T11:52:01;101894.97;;;28.07;45.44
70248;BME280;57641;51.416;5.506;2022-08-01T11:54:29;101899.19;;;28.26;44.66
70248;BME280;57641;51.416;5.506;2022-08-01T11:56:57;101902.88;;;28.32;43.86
70248;BME280;57641;51.416;5.506;2022-08-01T11:59:22;101892.59;;;28.39;43.56
70248;BME280;57641;51.416;5.506;2022-08-01T12:01:49;101909.53;;;28.36;42.78
70248;BME280;57641;51.416;5.506;2022-08-01T12:04:14;101914.03;;;28.42;42.60
70248;BME280;57641;51.416;5.506;2022-08-01T12:06:39;101915.22;;;28.18;43.27
70248;BME280;57641;51.416;5.506;2022-08-01T12:09:16;101915.56;;;28.21;43.38
70248;BME280;57641;51.416;5.506;2022-08-01T12:11:42;101921.78;;;28.05;42.52
70248;BME280;57641;51.416;5.506;2022-08-01T12:14:07;101924.41;;;28.00;43.15
70248;BME280;57641;51.416;5.506;2022-08-01T12:16:33;101923.34;;;28.01;42.94
70248;BME280;57641;51.416;5.506;2022-08-01T12:18:58;101922.19;;;27.97;42.89
70248;BME280;57641;51.416;5.506;2022-08-01T12:21:24;101920.50;;;27.96;42.75
70248;BME280;57641;51.416;5.506;2022-08-01T12:24:10;101919.53;;;28.02;43.16
70248;BME280;57641;51.416;5.506;2022-08-01T12:26:42;101919.63;;;28.07;43.11
70248;BME280;57641;51.416;5.506;2022-08-01T12:29:08;101915.94;;;28.13;42.81
70248;BME280;57641;51.416;5.506;2022-08-01T12:31:34;101917.91;;;28.29;42.31
70248;BME280;57641;51.416;5.506;2022-08-01T12:34:25;101918.00;;;28.34;43.27
70248;BME280;57641;51.416;5.506;2022-08-01T12:36:57;101924.81;;;28.32;42.68
70248;BME280;57641;51.416;5.506;2022-08-01T12:39:30;101918.00;;;28.34;41.81
70248;BME280;57641;51.416;5.506;2022-08-01T12:41:55;101919.00;;;28.28;41.18
70248;BME280;57641;51.416;5.506;2022-08-01T12:44:21;101929.16;;;28.04;42.62
70248;BME280;57641;51.416;5.506;2022-08-01T12:46:47;101920.09;;;28.04;42.52
70248;BME280;57641;51.416;5.506;2022-08-01T12:49:13;101921.78;;;28.05;42.29
70248;BME280;57641;51.416;5.506;2022-08-01T12:51:38;101921.41;;;28.13;42.38
70248;BME280;57641;51.416;5.506;2022-08-01T12:54:04;101921.13;;;28.26;42.62
70248;BME280;57641;51.416;5.506;2022-08-01T12:56:33;101917.19;;;28.34;41.63
70248;BME280;57641;51.416;5.506;2022-08-01T12:58:59;101920.63;;;28.29;40.74
70248;BME280;57641;51.416;5.506;2022-08-01T13:01:26;101923.47;;;28.34;40.63
70248;BME280;57641;51.416;5.506;2022-08-01T13:04:00;101925.88;;;28.31;39.88
70248;BME280;57641;51.416;5.506;2022-08-01T13:06:29;101914.22;;;28.52;39.80
70248;BME280;57641;51.416;5.506;2022-08-01T13:09:08;101914.41;;;28.62;40.17
70248;BME280;57641;51.416;5.506;2022-08-01T13:11:39;101908.16;;;28.67;39.91
70248;BME280;57641;51.416;5.506;2022-08-01T13:14:06;101906.00;;;28.52;39.87
70248;BME280;57641;51.416;5.506;2022-08-01T13:16:32;101904.25;;;28.63;38.97